sensor_id;sensor_type;location;lat;lon;timestamp;pressure;altitude;pressure_sealevel;temperature;humidity
41306;BME280;27051;50.376;19.152;2023-04-06T00:02:02;98564.56;;;0.34;45.73
41306;BME280;27051;50.376;19.152;2023-04-06T00:04:29;98568.15;;;0.35;45.96
41306;BME280;27051;50.376;19.152;2023-04-06T00:06:55;98568.52;;;0.35;45.95
41306;BME280;27051;50.376;19.152;2023-04-06T00:09:21;98568.05;;;0.40;45.99
41306;BME280;27051;50.376;19.152;2023-04-06T00:11:48;98569.25;;;0.47;45.97
41306;BME280;27051;50.376;19.152;2023-04-06T00:14:14;98566.55;;;0.54;46.06
41306;BME280;27051;50.376;19.152;2023-04-06T00:16:41;98565.02;;;0.47;46.00
41306;BME280;27051;50.376;19.152;2023-04-06T00:19:07;98565.05;;;0.45;46.10
41306;BME280;27051;50.376;19.152;2023-04-06T00:21:33;98560.84;;;0.48;46.12
41306;BME280;27051;50.376;19.152;2023-04-06T00:24:00;98562.16;;;0.51;46.34
41306;BME280;27051;50.376;19.152;2023-04-06T00:26:26;98557.46;;;0.51;46.17
41306;BME280;27051;50.376;19.152;2023-04-06T00:28:53;98555.04;;;0.57;46.21
41306;BME280;27051;50.376;19.152;2023-04-06T00:31:19;98554.34;;;0.58;46.23
41306;BME280;27051;50.376;19.152;2023-04-06T00:33:47;98552.23;;;0.52;46.35
41306;BME280;27051;50.376;19.152;2023-04-06T00:36:14;98551.38;;;0.52;46.37
41306;BME280;27051;50.376;19.152;2023-04-06T00:38:40;98549.04;;;0.52;46.36
41306;BME280;27051;50.376;19.152;2023-04-06T00:41:06;98547.04;;;0.50;46.47
41306;BME280;27051;50.376;19.152;2023-04-06T00:43:36;98543.80;;;0.48;46.40
41306;BME280;27051;50.376;19.152;2023-04-06T00:46:02;98543.41;;;0.39;46.56
41306;BME280;27051;50.376;19.152;2023-04-06T00:48:29;98544.66;;;0.33;46.70
41306;BME280;27051;50.376;19.152;2023-04-06T00:50:55;98542.61;;;0.34;46.78
41306;BME280;27051;50.376;19.152;2023-04-06T00:53:21;98543.09;;;0.31;46.80
41306;BME280;27051;50.376;19.152;2023-04-06T00:55:48;98547.20;;;0.28;46.87
41306;BME280;27051;50.376;19.152;2023-04-06T00:58:14;98546.65;;;0.20;46.96
41306;BME280;27051;50.376;19.152;2023-04-06T01:00:41;98546.65;;;0.19;47.17
41306;BME280;27051;50.376;19.152;2023-04-06T01:03:07;98545.27;;;0.20;47.19
41306;BME280;27051;50.376;19.152;2023-04-06T01:05:35;98544.48;;;0.17;47.11
41306;BME280;27051;50.376;19.152;2023-04-06T01:08:01;98547.34;;;0.08;47.18
41306;BME280;27051;50.376;19.152;2023-04-06T01:10:28;98544.30;;;0.03;47.33
41306;BME280;27051;50.376;19.152;2023-04-06T01:12:55;98544.08;;;-0.04;47.54
41306;BME280;27051;50.376;19.152;2023-04-06T01:15:21;98541.39;;;0.00;47.56
41306;BME280;27051;50.376;19.152;2023-04-06T01:17:47;98538.99;;;-0.04;47.49
41306;BME280;27051;50.376;19.152;2023-04-06T01:20:14;98537.42;;;-0.12;47.57
41306;BME280;27051;50.376;19.152;2023-04-06T01:22:41;98540.48;;;-0.17;47.72
41306;BME280;27051;50.376;19.152;2023-04-06T01:25:08;98537.63;;;-0.17;47.83
41306;BME280;27051;50.376;19.152;2023-04-06T01:27:34;98537.52;;;-0.15;47.81
41306;BME280;27051;50.376;19.152;2023-04-06T01:30:01;98538.48;;;-0.12;47.98
41306;BME280;27051;50.376;19.152;2023-04-06T01:32:27;98536.34;;;-0.06;48.01
41306;BME280;27051;50.376;19.152;2023-04-06T01:34:54;98538.90;;;-0.03;48.07
41306;BME280;27051;50.376;19.152;2023-04-06T01:37:20;98538.13;;;-0.11;48.13
41306;BME280;27051;50.376;19.152;2023-04-06T01:39:47;98537.88;;;-0.18;48.27
41306;BME280;27051;50.376;19.152;2023-04-06T01:42:13;98536.77;;;-0.23;48.25
41306;BME280;27051;50.376;19.152;2023-04-06T01:44:39;98540.73;;;-0.28;48.15
41306;BME280;27051;50.376;19.152;2023-04-06T01:47:06;98540.77;;;-0.34;48.31
41306;BME280;27051;50.376;19.152;2023-04-06T01:49:32;98532.88;;;-0.38;48.35
41306;BME280;27051;50.376;19.152;2023-04-06T01:51:59;98532.29;;;-0.39;48.51
41306;BME280;27051;50.376;19.152;2023-04-06T01:54:25;98531.09;;;-0.37;48.56
41306;BME280;27051;50.376;19.152;2023-04-06T01:56:52;98524.98;;;-0.39;48.64
41306;BME280;27051;50.376;19.152;2023-04-06T01:59:18;98525.20;;;-0.31;48.58
41306;BME280;27051;50.376;19.152;2023-04-06T02:01:44;98519.91;;;-0.21;48.74
41306;BME280;27051;50.376;19.152;2023-04-06T02:04:11;98522.76;;;-0.10;48.70
41306;BME280;27051;50.376;19.152;2023-04-06T02:06:37;98524.13;;;-0.08;48.69
41306;BME280;27051;50.376;19.152;2023-04-06T02:09:04;98521.73;;;-0.12;48.66
41306;BME280;27051;50.376;19.152;2023-04-06T02:11:30;98521.33;;;-0.11;48.69
41306;BME280;27051;50.376;19.152;2023-04-06T02:13:56;98524.09;;;-0.17;48.80
41306;BME280;27051;50.376;19.152;2023-04-06T02:16:23;98523.61;;;-0.19;48.91
41306;BME280;27051;50.376;19.152;2023-04-06T02:18:49;98519.83;;;-0.11;48.97
41306;BME280;27051;50.376;19.152;2023-04-06T02:21:16;98518.21;;;-0.09;48.87
41306;BME280;27051;50.376;19.152;2023-04-06T02:23:42;98515.79;;;-0.06;48.89
41306;BME280;27051;50.376;19.152;2023-04-06T02:26:09;98516.91;;;-0.06;48.94
41306;BME280;27051;50.376;19.152;2023-04-06T02:28:35;98518.48;;;-0.07;49.02
41306;BME280;27051;50.376;19.152;2023-04-06T02:31:01;98521.71;;;-0.07;49.02
41306;BME280;27051;50.376;19.152;2023-04-06T02:33:28;98517.98;;;-0.12;48.98
41306;BME280;27051;50.376;19.152;2023-04-06T02:35:54;98518.95;;;-0.11;49.13
41306;BME280;27051;50.376;19.152;2023-04-06T02:38:20;98519.58;;;-0.12;49.13
41306;BME280;27051;50.376;19.152;2023-04-06T02:40:47;98516.91;;;-0.15;49.05
41306;BME280;27051;50.376;19.152;2023-04-06T02:43:13;98517.38;;;-0.17;49.28
41306;BME280;27051;50.376;19.152;2023-04-06T02:45:39;98518.69;;;-0.21;49.33
41306;BME280;27051;50.376;19.152;2023-04-06T02:48:06;98520.58;;;-0.25;49.35
41306;BME280;27051;50.376;19.152;2023-04-06T02:50:32;98519.03;;;-0.29;49.46
41306;BME280;27051;50.376;19.152;2023-04-06T02:52:59;98521.51;;;-0.28;49.35
41306;BME280;27051;50.376;19.152;2023-04-06T02:55:25;98518.08;;;-0.29;49.50
41306;BME280;27051;50.376;19.152;2023-04-06T02:57:51;98517.02;;;-0.29;49.64
41306;BME280;27051;50.376;19.152;2023-04-06T03:00:18;98519.77;;;-0.29;49.54
41306;BME280;27051;50.376;19.152;2023-04-06T03:02:45;98521.83;;;-0.31;49.63
41306;BME280;27051;50.376;19.152;2023-04-06T03:05:11;98520.70;;;-0.33;49.60
41306;BME280;27051;50.376;19.152;2023-04-06T03:07:38;98525.77;;;-0.37;49.70
41306;BME280;27051;50.376;19.152;2023-04-06T03:10:05;98525.34;;;-0.36;49.72
41306;BME280;27051;50.376;19.152;2023-04-06T03:12:31;98525.01;;;-0.48;49.74
41306;BME280;27051;50.376;19.152;2023-04-06T03:14:58;98526.73;;;-0.61;49.83
41306;BME280;27051;50.376;19.152;2023-04-06T03:17:24;98524.73;;;-0.69;50.10
41306;BME280;27051;50.376;19.152;2023-04-06T03:19:51;98528.05;;;-0.78;50.05
41306;BME280;27051;50.376;19.152;2023-04-06T03:22:17;98531.77;;;-0.90;50.05
41306;BME280;27051;50.376;19.152;2023-04-06T03:24:43;98528.41;;;-0.95;50.33
41306;BME280;27051;50.376;19.152;2023-04-06T03:27:10;98527.91;;;-0.90;50.37
41306;BME280;27051;50.376;19.152;2023-04-06T03:29:36;98528.73;;;-0.80;50.41
41306;BME280;27051;50.376;19.152;2023-04-06T03:32:02;98528.11;;;-0.85;50.42
41306;BME280;27051;50.376;19.152;2023-04-06T03:34:29;98530.52;;;-0.88;50.41
41306;BME280;27051;50.376;19.152;2023-04-06T03:36:55;98529.00;;;-0.77;50.60
41306;BME280;27051;50.376;19.152;2023-04-06T03:39:22;98531.25;;;-0.73;50.48
41306;BME280;27051;50.376;19.152;2023-04-06T03:41:48;98527.85;;;-0.69;50.52
41306;BME280;27051;50.376;19.152;2023-04-06T03:44:14;98529.17;;;-0.67;50.45
41306;BME280;27051;50.376;19.152;2023-04-06T03:46:41;98532.27;;;-0.69;50.41
41306;BME280;27051;50.376;19.152;2023-04-06T03:49:07;98533.26;;;-0.74;50.51
41306;BME280;27051;50.376;19.152;2023-04-06T03:51:34;98536.46;;;-0.76;50.59
41306;BME280;27051;50.376;19.152;2023-04-06T03:54:00;98538.95;;;-0.80;50.71
41306;BME280;27051;50.376;19.152;2023-04-06T03:56:27;98538.02;;;-0.80;50.60
41306;BME280;27051;50.376;19.152;2023-04-06T03:58:53;98537.05;;;-0.89;50.69
41306;BME280;27051;50.376;19.152;2023-04-06T04:01:20;98538.64;;;-0.95;50.79
41306;BME280;27051;50.376;19.152;2023-04-06T04:03:46;98538.98;;;-0.92;50.94
41306;BME280;27051;50.376;19.152;2023-04-06T04:06:13;98535.62;;;-0.83;50.95
41306;BME280;27051;50.376;19.152;2023-04-06T04:08:39;98537.73;;;-0.81;50.93
41306;BME280;27051;50.376;19.152;2023-04-06T04:11:06;98533.66;;;-0.78;50.84
41306;BME280;27051;50.376;19.152;2023-04-06T04:13:32;98532.48;;;-0.71;50.97
41306;BME280;27051;50.376;19.152;2023-04-06T04:15:59;98536.02;;;-0.72;50.86
41306;BME280;27051;50.376;19.152;2023-04-06T04:18:25;98539.28;;;-0.71;50.77
41306;BME280;27051;50.376;19.152;2023-04-06T04:20:52;98538.02;;;-0.72;50.88
41306;BME280;27051;50.376;19.152;2023-04-06T04:23:18;98542.11;;;-0.75;50.94
41306;BME280;27051;50.376;19.152;2023-04-06T04:25:44;98539.67;;;-0.83;50.94
41306;BME280;27051;50.376;19.152;2023-04-06T04:28:11;98539.41;;;-0.91;51.01
41306;BME280;27051;50.376;19.152;2023-04-06T04:30:37;98536.38;;;-0.93;51.16
41306;BME280;27051;50.376;19.152;2023-04-06T04:33:03;98533.98;;;-0.91;51.15
41306;BME280;27051;50.376;19.152;2023-04-06T04:35:30;98534.02;;;-0.84;51.33
41306;BME280;27051;50.376;19.152;2023-04-06T04:37:56;98534.24;;;-0.75;51.22
41306;BME280;27051;50.376;19.152;2023-04-06T04:40:23;98536.76;;;-0.70;51.28
41306;BME280;27051;50.376;19.152;2023-04-06T04:42:49;98536.59;;;-0.62;51.23
41306;BME280;27051;50.376;19.152;2023-04-06T04:45:16;98536.57;;;-0.58;51.38
41306;BME280;27051;50.376;19.152;2023-04-06T04:47:42;98535.05;;;-0.55;51.24
41306;BME280;27051;50.376;19.152;2023-04-06T04:50:09;98536.68;;;-0.56;51.36
41306;BME280;27051;50.376;19.152;2023-04-06T04:52:37;98538.31;;;-0.49;51.28
41306;BME280;27051;50.376;19.152;2023-04-06T04:55:04;98532.10;;;-0.44;51.48
41306;BME280;27051;50.376;19.152;2023-04-06T04:57:30;98533.80;;;-0.41;51.35
41306;BME280;27051;50.376;19.152;2023-04-06T04:59:57;98530.09;;;-0.35;51.35
41306;BME280;27051;50.376;19.152;2023-04-06T05:02:23;98530.04;;;-0.24;51.37
41306;BME280;27051;50.376;19.152;2023-04-06T05:04:50;98530.49;;;-0.14;51.33
41306;BME280;27051;50.376;19.152;2023-04-06T05:07:16;98534.16;;;-0.09;51.33
41306;BME280;27051;50.376;19.152;2023-04-06T05:09:42;98532.06;;;-0.05;51.39
41306;BME280;27051;50.376;19.152;2023-04-06T05:12:09;98528.77;;;-0.01;51.46
41306;BME280;27051;50.376;19.152;2023-04-06T05:14:35;98526.27;;;0.09;51.26
41306;BME280;27051;50.376;19.152;2023-04-06T05:17:02;98524.55;;;0.20;51.23
41306;BME280;27051;50.376;19.152;2023-04-06T05:19:29;98525.62;;;0.30;51.38
41306;BME280;27051;50.376;19.152;2023-04-06T05:21:56;98529.02;;;0.37;51.34
41306;BME280;27051;50.376;19.152;2023-04-06T05:24:22;98528.26;;;0.47;51.26
41306;BME280;27051;50.376;19.152;2023-04-06T05:26:49;98527.79;;;0.54;51.15
41306;BME280;27051;50.376;19.152;2023-04-06T05:29:16;98528.44;;;0.65;50.94
41306;BME280;27051;50.376;19.152;2023-04-06T05:31:42;98529.45;;;0.72;51.02
41306;BME280;27051;50.376;19.152;2023-04-06T05:34:09;98528.23;;;0.80;51.13
41306;BME280;27051;50.376;19.152;2023-04-06T05:36:35;98527.44;;;0.87;51.12
41306;BME280;27051;50.376;19.152;2023-04-06T05:39:02;98528.61;;;0.98;51.02
41306;BME280;27051;50.376;19.152;2023-04-06T05:41:28;98524.58;;;1.03;50.94
41306;BME280;27051;50.376;19.152;2023-04-06T05:43:55;98528.34;;;1.11;50.91
41306;BME280;27051;50.376;19.152;2023-04-06T05:46:21;98530.51;;;1.21;50.94
41306;BME280;27051;50.376;19.152;2023-04-06T05:48:48;98526.72;;;1.32;51.02
41306;BME280;27051;50.376;19.152;2023-04-06T05:51:14;98520.50;;;1.45;50.81
41306;BME280;27051;50.376;19.152;2023-04-06T05:53:41;98518.91;;;1.47;50.61
41306;BME280;27051;50.376;19.152;2023-04-06T05:56:07;98517.79;;;1.50;50.83
41306;BME280;27051;50.376;19.152;2023-04-06T05:58:34;98516.14;;;1.55;50.76
41306;BME280;27051;50.376;19.152;2023-04-06T06:01:00;98515.77;;;1.66;50.79
41306;BME280;27051;50.376;19.152;2023-04-06T06:03:27;98511.02;;;1.78;50.69
41306;BME280;27051;50.376;19.152;2023-04-06T06:05:59;98510.92;;;1.90;50.56
41306;BME280;27051;50.376;19.152;2023-04-06T06:08:26;98511.77;;;2.01;50.50
41306;BME280;27051;50.376;19.152;2023-04-06T06:10:52;98508.64;;;2.13;50.43
41306;BME280;27051;50.376;19.152;2023-04-06T06:13:18;98510.50;;;2.22;50.32
41306;BME280;27051;50.376;19.152;2023-04-06T06:15:46;98513.58;;;2.31;50.34
41306;BME280;27051;50.376;19.152;2023-04-06T06:18:12;98516.31;;;2.44;50.38
41306;BME280;27051;50.376;19.152;2023-04-06T06:20:38;98519.36;;;2.57;50.38
41306;BME280;27051;50.376;19.152;2023-04-06T06:23:05;98515.65;;;2.65;50.20
41306;BME280;27051;50.376;19.152;2023-04-06T06:25:32;98516.52;;;2.69;50.07
41306;BME280;27051;50.376;19.152;2023-04-06T06:27:59;98512.52;;;2.72;50.26
41306;BME280;27051;50.376;19.152;2023-04-06T06:30:25;98517.14;;;2.80;50.28
41306;BME280;27051;50.376;19.152;2023-04-06T06:32:52;98515.34;;;2.85;50.01
41306;BME280;27051;50.376;19.152;2023-04-06T06:35:18;98516.98;;;2.91;49.84
41306;BME280;27051;50.376;19.152;2023-04-06T06:37:45;98517.89;;;2.97;50.13
41306;BME280;27051;50.376;19.152;2023-04-06T06:40:11;98519.48;;;3.05;50.02
41306;BME280;27051;50.376;19.152;2023-04-06T06:42:38;98515.73;;;3.15;50.07
41306;BME280;27051;50.376;19.152;2023-04-06T06:45:06;98516.52;;;3.25;49.49
41306;BME280;27051;50.376;19.152;2023-04-06T06:47:33;98513.25;;;3.34;49.53
41306;BME280;27051;50.376;19.152;2023-04-06T06:49:59;98517.19;;;3.45;49.49
41306;BME280;27051;50.376;19.152;2023-04-06T06:52:25;98515.16;;;3.61;49.34
41306;BME280;27051;50.376;19.152;2023-04-06T06:54:52;98515.80;;;3.75;48.97
41306;BME280;27051;50.376;19.152;2023-04-06T06:57:18;98516.11;;;3.85;48.90
41306;BME280;27051;50.376;19.152;2023-04-06T06:59:45;98515.64;;;4.01;49.21
41306;BME280;27051;50.376;19.152;2023-04-06T07:02:11;98513.57;;;4.26;49.19
41306;BME280;27051;50.376;19.152;2023-04-06T07:04:37;98512.42;;;4.51;48.88
41306;BME280;27051;50.376;19.152;2023-04-06T07:07:04;98518.29;;;4.75;48.37
41306;BME280;27051;50.376;19.152;2023-04-06T07:09:30;98518.06;;;4.90;47.80
41306;BME280;27051;50.376;19.152;2023-04-06T07:11:57;98514.84;;;5.05;48.00
41306;BME280;27051;50.376;19.152;2023-04-06T07:14:23;98518.64;;;5.23;47.64
41306;BME280;27051;50.376;19.152;2023-04-06T07:16:49;98516.73;;;5.39;47.44
41306;BME280;27051;50.376;19.152;2023-04-06T07:19:16;98512.36;;;5.55;47.34
41306;BME280;27051;50.376;19.152;2023-04-06T07:21:42;98512.36;;;5.76;47.00
41306;BME280;27051;50.376;19.152;2023-04-06T07:24:09;98508.19;;;5.87;46.76
41306;BME280;27051;50.376;19.152;2023-04-06T07:26:35;98512.61;;;5.96;46.59
41306;BME280;27051;50.376;19.152;2023-04-06T07:29:02;98510.46;;;5.99;45.46
41306;BME280;27051;50.376;19.152;2023-04-06T07:31:29;98515.17;;;5.96;45.52
41306;BME280;27051;50.376;19.152;2023-04-06T07:33:55;98506.16;;;5.93;45.04
41306;BME280;27051;50.376;19.152;2023-04-06T07:36:22;98506.09;;;5.90;44.98
41306;BME280;27051;50.376;19.152;2023-04-06T07:38:48;98509.49;;;5.94;45.16
41306;BME280;27051;50.376;19.152;2023-04-06T07:41:14;98510.81;;;5.94;44.75
41306;BME280;27051;50.376;19.152;2023-04-06T07:43:41;98510.66;;;5.96;45.21
41306;BME280;27051;50.376;19.152;2023-04-06T07:46:07;98515.66;;;6.03;45.18
41306;BME280;27051;50.376;19.152;2023-04-06T07:48:34;98512.96;;;6.10;45.06
41306;BME280;27051;50.376;19.152;2023-04-06T07:51:02;98513.02;;;6.13;45.12
41306;BME280;27051;50.376;19.152;2023-04-06T07:53:28;98512.73;;;6.14;44.73
41306;BME280;27051;50.376;19.152;2023-04-06T07:55:55;98512.19;;;6.11;44.14
41306;BME280;27051;50.376;19.152;2023-04-06T07:58:21;98513.25;;;6.04;44.27
41306;BME280;27051;50.376;19.152;2023-04-06T08:00:48;98513.76;;;6.05;44.39
41306;BME280;27051;50.376;19.152;2023-04-06T08:03:14;98514.67;;;6.02;44.15
41306;BME280;27051;50.376;19.152;2023-04-06T08:05:41;98515.78;;;6.00;44.15
41306;BME280;27051;50.376;19.152;2023-04-06T08:08:07;98513.80;;;5.96;44.08
41306;BME280;27051;50.376;19.152;2023-04-06T08:10:34;98518.21;;;5.99;44.22
41306;BME280;27051;50.376;19.152;2023-04-06T08:13:00;98516.83;;;6.04;44.34
41306;BME280;27051;50.376;19.152;2023-04-06T08:15:27;98512.17;;;6.09;43.94
41306;BME280;27051;50.376;19.152;2023-04-06T08:17:56;98511.28;;;6.09;43.86
41306;BME280;27051;50.376;19.152;2023-04-06T08:20:22;98511.56;;;6.05;43.59
41306;BME280;27051;50.376;19.152;2023-04-06T08:22:49;98511.33;;;5.93;43.66
41306;BME280;27051;50.376;19.152;2023-04-06T08:25:15;98510.65;;;5.83;43.69
41306;BME280;27051;50.376;19.152;2023-04-06T08:27:42;98511.98;;;5.73;43.74
41306;BME280;27051;50.376;19.152;2023-04-06T08:30:08;98513.75;;;5.64;43.66
41306;BME280;27051;50.376;19.152;2023-04-06T08:32:38;98516.20;;;5.53;44.05
41306;BME280;27051;50.376;19.152;2023-04-06T08:35:04;98516.19;;;5.44;43.95
41306;BME280;27051;50.376;19.152;2023-04-06T08:37:31;98515.52;;;5.39;43.86
41306;BME280;27051;50.376;19.152;2023-04-06T08:39:57;98515.30;;;5.37;44.18
41306;BME280;27051;50.376;19.152;2023-04-06T08:42:25;98513.96;;;5.35;43.79
41306;BME280;27051;50.376;19.152;2023-04-06T08:44:52;98516.44;;;5.27;43.88
41306;BME280;27051;50.376;19.152;2023-04-06T08:47:19;98514.80;;;5.23;43.88
41306;BME280;27051;50.376;19.152;2023-04-06T08:49:46;98514.36;;;5.20;43.95
41306;BME280;27051;50.376;19.152;2023-04-06T08:52:14;98511.28;;;5.23;44.25
41306;BME280;27051;50.376;19.152;2023-04-06T08:54:42;98507.42;;;5.33;44.09
41306;BME280;27051;50.376;19.152;2023-04-06T08:57:08;98506.61;;;5.46;43.96
41306;BME280;27051;50.376;19.152;2023-04-06T08:59:35;98503.95;;;5.52;43.98
41306;BME280;27051;50.376;19.152;2023-04-06T09:02:04;98501.02;;;5.62;43.95
41306;BME280;27051;50.376;19.152;2023-04-06T09:04:32;98495.63;;;5.65;43.43
41306;BME280;27051;50.376;19.152;2023-04-06T09:07:00;98497.12;;;5.69;43.48
41306;BME280;27051;50.376;19.152;2023-04-06T09:09:26;98487.92;;;5.78;43.51
41306;BME280;27051;50.376;19.152;2023-04-06T09:11:53;98485.94;;;5.86;43.39
41306;BME280;27051;50.376;19.152;2023-04-06T09:14:36;98486.38;;;5.98;43.45
41306;BME280;27051;50.376;19.152;2023-04-06T09:17:04;98483.65;;;6.11;43.04
41306;BME280;27051;50.376;19.152;2023-04-06T09:19:31;98477.69;;;6.25;42.82
41306;BME280;27051;50.376;19.152;2023-04-06T09:22:03;98473.83;;;6.33;42.48
41306;BME280;27051;50.376;19.152;2023-04-06T09:25:00;98473.79;;;6.39;42.50
41306;BME280;27051;50.376;19.152;2023-04-06T09:27:33;98472.63;;;6.60;42.39
41306;BME280;27051;50.376;19.152;2023-04-06T09:30:11;98469.06;;;6.86;42.44
41306;BME280;27051;50.376;19.152;2023-04-06T09:32:48;98466.00;;;7.16;42.32
41306;BME280;27051;50.376;19.152;2023-04-06T09:35:15;98460.67;;;7.52;42.36
41306;BME280;27051;50.376;19.152;2023-04-06T09:37:42;98462.34;;;7.82;41.73
41306;BME280;27051;50.376;19.152;2023-04-06T09:40:10;98456.13;;;8.17;41.72
41306;BME280;27051;50.376;19.152;2023-04-06T09:42:36;98458.71;;;8.76;41.03
41306;BME280;27051;50.376;19.152;2023-04-06T09:45:03;98455.94;;;9.19;40.17
41306;BME280;27051;50.376;19.152;2023-04-06T09:47:30;98447.36;;;9.58;40.03
41306;BME280;27051;50.376;19.152;2023-04-06T09:49:58;98448.44;;;9.88;39.55
41306;BME280;27051;50.376;19.152;2023-04-06T09:52:48;98442.60;;;9.97;39.54
41306;BME280;27051;50.376;19.152;2023-04-06T09:55:23;98439.11;;;9.99;38.83
41306;BME280;27051;50.376;19.152;2023-04-06T09:58:06;98433.20;;;10.21;39.26
41306;BME280;27051;50.376;19.152;2023-04-06T10:00:44;98425.80;;;10.58;38.52
41306;BME280;27051;50.376;19.152;2023-04-06T10:05:52;98427.60;;;10.53;38.22
41306;BME280;27051;50.376;19.152;2023-04-06T10:08:24;98430.41;;;10.46;37.58
41306;BME280;27051;50.376;19.152;2023-04-06T10:10:52;98424.92;;;10.43;37.69
41306;BME280;27051;50.376;19.152;2023-04-06T10:13:20;98426.52;;;10.38;37.86
41306;BME280;27051;50.376;19.152;2023-04-06T10:15:47;98424.70;;;10.24;37.79
41306;BME280;27051;50.376;19.152;2023-04-06T10:18:15;98420.50;;;10.25;38.11
41306;BME280;27051;50.376;19.152;2023-04-06T10:20:57;98419.95;;;10.37;37.41
41306;BME280;27051;50.376;19.152;2023-04-06T10:23:31;98417.45;;;10.37;37.36
41306;BME280;27051;50.376;19.152;2023-04-06T10:26:14;98414.98;;;10.29;37.44
41306;BME280;27051;50.376;19.152;2023-04-06T10:28:41;98414.80;;;10.13;37.67
41306;BME280;27051;50.376;19.152;2023-04-06T10:31:08;98415.27;;;10.06;37.66
41306;BME280;27051;50.376;19.152;2023-04-06T10:33:35;98414.31;;;10.00;37.67
41306;BME280;27051;50.376;19.152;2023-04-06T10:36:15;98409.52;;;9.85;37.48
41306;BME280;27051;50.376;19.152;2023-04-06T10:38:57;98413.23;;;9.65;37.49
41306;BME280;27051;50.376;19.152;2023-04-06T10:41:32;98407.98;;;9.37;37.20
41306;BME280;27051;50.376;19.152;2023-04-06T10:43:59;98406.45;;;9.12;37.19
41306;BME280;27051;50.376;19.152;2023-04-06T10:46:27;98405.13;;;9.02;37.71
41306;BME280;27051;50.376;19.152;2023-04-06T10:48:53;98408.03;;;8.98;37.71
41306;BME280;27051;50.376;19.152;2023-04-06T10:51:24;98408.15;;;9.01;37.57
41306;BME280;27051;50.376;19.152;2023-04-06T10:53:52;98405.04;;;8.92;37.45
41306;BME280;27051;50.376;19.152;2023-04-06T10:56:22;98404.88;;;8.79;37.74
41306;BME280;27051;50.376;19.152;2023-04-06T10:58:53;98402.00;;;8.62;37.43
41306;BME280;27051;50.376;19.152;2023-04-06T11:01:22;98401.98;;;8.45;37.73
41306;BME280;27051;50.376;19.152;2023-04-06T11:03:52;98400.91;;;8.24;37.80
41306;BME280;27051;50.376;19.152;2023-04-06T11:06:20;98395.27;;;8.23;38.01
41306;BME280;27051;50.376;19.152;2023-04-06T11:08:46;98393.61;;;8.24;37.99
41306;BME280;27051;50.376;19.152;2023-04-06T11:11:16;98395.93;;;8.24;38.07
41306;BME280;27051;50.376;19.152;2023-04-06T11:13:55;98393.86;;;8.31;37.83
41306;BME280;27051;50.376;19.152;2023-04-06T11:16:26;98392.64;;;8.43;38.16
41306;BME280;27051;50.376;19.152;2023-04-06T11:18:55;98389.06;;;8.58;37.95
41306;BME280;27051;50.376;19.152;2023-04-06T11:24:24;98390.70;;;8.73;37.86
41306;BME280;27051;50.376;19.152;2023-04-06T11:26:54;98389.04;;;8.92;37.63
41306;BME280;27051;50.376;19.152;2023-04-06T11:29:23;98381.81;;;9.09;37.38
41306;BME280;27051;50.376;19.152;2023-04-06T11:31:51;98386.21;;;9.21;37.42
41306;BME280;27051;50.376;19.152;2023-04-06T11:34:22;98380.29;;;9.32;37.28
41306;BME280;27051;50.376;19.152;2023-04-06T11:36:58;98380.51;;;9.36;37.42
41306;BME280;27051;50.376;19.152;2023-04-06T11:39:26;98380.10;;;9.33;36.99
41306;BME280;27051;50.376;19.152;2023-04-06T11:41:55;98382.33;;;9.14;37.32
41306;BME280;27051;50.376;19.152;2023-04-06T11:44:42;98380.17;;;9.01;37.20
41306;BME280;27051;50.376;19.152;2023-04-06T11:47:10;98374.70;;;8.88;37.44
41306;BME280;27051;50.376;19.152;2023-04-06T11:49:38;98374.64;;;8.81;37.44
41306;BME280;27051;50.376;19.152;2023-04-06T11:52:18;98375.71;;;8.78;37.62
41306;BME280;27051;50.376;19.152;2023-04-06T11:54:46;98372.11;;;8.78;37.82
41306;BME280;27051;50.376;19.152;2023-04-06T11:57:13;98370.09;;;8.71;37.40
41306;BME280;27051;50.376;19.152;2023-04-06T11:59:39;98374.66;;;8.58;37.64
41306;BME280;27051;50.376;19.152;2023-04-06T12:02:06;98370.02;;;8.45;37.95
41306;BME280;27051;50.376;19.152;2023-04-06T12:04:32;98370.26;;;8.34;37.99
41306;BME280;27051;50.376;19.152;2023-04-06T12:06:59;98368.00;;;8.19;37.87
41306;BME280;27051;50.376;19.152;2023-04-06T12:09:25;98367.48;;;8.07;38.20
41306;BME280;27051;50.376;19.152;2023-04-06T12:11:52;98369.70;;;8.03;38.30
41306;BME280;27051;50.376;19.152;2023-04-06T12:14:19;98364.73;;;7.96;37.94
41306;BME280;27051;50.376;19.152;2023-04-06T12:16:46;98367.50;;;7.90;38.57
41306;BME280;27051;50.376;19.152;2023-04-06T12:19:12;98369.46;;;7.83;38.47
41306;BME280;27051;50.376;19.152;2023-04-06T12:21:39;98363.39;;;7.70;38.72
41306;BME280;27051;50.376;19.152;2023-04-06T12:24:06;98362.02;;;7.54;38.93
41306;BME280;27051;50.376;19.152;2023-04-06T12:26:32;98357.79;;;7.54;39.22
41306;BME280;27051;50.376;19.152;2023-04-06T12:28:59;98358.98;;;7.50;39.22
41306;BME280;27051;50.376;19.152;2023-04-06T12:31:26;98357.67;;;7.44;39.48
41306;BME280;27051;50.376;19.152;2023-04-06T12:33:52;98353.31;;;7.37;39.42
41306;BME280;27051;50.376;19.152;2023-04-06T12:36:19;98349.96;;;7.31;39.56
41306;BME280;27051;50.376;19.152;2023-04-06T12:38:47;98345.06;;;7.21;39.81
41306;BME280;27051;50.376;19.152;2023-04-06T12:41:14;98344.39;;;7.06;40.04
41306;BME280;27051;50.376;19.152;2023-04-06T12:43:42;98347.81;;;6.98;40.03
41306;BME280;27051;50.376;19.152;2023-04-06T12:46:09;98343.45;;;6.97;40.29
41306;BME280;27051;50.376;19.152;2023-04-06T12:48:35;98341.23;;;6.96;40.33
41306;BME280;27051;50.376;19.152;2023-04-06T12:51:04;98345.48;;;6.87;40.22
41306;BME280;27051;50.376;19.152;2023-04-06T12:53:32;98348.60;;;6.76;40.62
41306;BME280;27051;50.376;19.152;2023-04-06T12:56:00;98343.54;;;6.68;40.57
41306;BME280;27051;50.376;19.152;2023-04-06T12:58:26;98342.56;;;6.63;40.62
41306;BME280;27051;50.376;19.152;2023-04-06T13:00:53;98345.04;;;6.61;41.08
41306;BME280;27051;50.376;19.152;2023-04-06T13:03:20;98340.75;;;6.53;41.21
41306;BME280;27051;50.376;19.152;2023-04-06T13:05:47;98345.80;;;6.44;42.00